Time;durP1;ratioP1;P1;durP2;ratioP2;P2;SDS_P1;SDS_P2;PMS_P1;PMS_P2;Temp;Humidity;BMP_temperature;BMP_pressure;BME280_temperature;BME280_humidity;BME280_pressure;Samples;Min_cycle;Max_cycle;Signal;HPM_P1;HPM_P2
2023/10/14 07:35:24;;;;;;;8.25;5.85;;;20.10;99.90;;;;;;5266551;27;20479;-77
2023/10/14 07:37:54;;;;;;;5.95;5.45;;;20.10;99.90;;;;;;5266579;28;20028;-78
2023/10/14 07:40:31;;;;;;;5.93;5.43;;;20.40;99.90;;;;;;5266422;28;20070;-77
2023/10/14 07:43:07;;;;;;;5.40;4.90;;;20.50;99.90;;;;;;5266406;28;20509;-77
2023/10/14 07:45:43;;;;;;;6.28;5.43;;;20.60;99.90;;;;;;5266500;28;20016;-78
2023/10/14 07:48:17;;;;;;;6.63;6.10;;;20.60;99.90;;;;;;5266596;28;20025;-78
2023/10/14 07:50:48;;;;;;;6.65;6.15;;;20.60;99.90;;;;;;5266327;28;20020;-77
2023/10/14 07:53:22;;;;;;;6.38;5.97;;;20.50;99.90;;;;;;5266188;28;20016;-78
2023/10/14 07:55:56;;;;;;;8.88;7.20;;;20.40;99.90;;;;;;5266253;28;20048;-78
2023/10/14 07:58:27;;;;;;;8.02;6.60;;;20.30;99.90;;;;;;5266157;28;20081;-78
2023/10/14 08:00:58;;;;;;;8.85;8.20;;;20.40;99.90;;;;;;5264552;28;20478;-77
2023/10/14 08:03:29;;;;;;;9.77;8.65;;;20.50;99.90;;;;;;5265851;28;20374;-78
2023/10/14 08:06:05;;;;;;;12.35;11.35;;;20.70;99.90;;;;;;5264515;28;20024;-77
2023/10/14 08:08:42;;;;;;;10.95;9.98;;;20.70;99.90;;;;;;5265711;28;20063;-77
2023/10/14 08:11:14;;;;;;;11.48;10.77;;;20.80;99.90;;;;;;5265938;28;20717;-77
2023/10/14 08:13:44;;;;;;;10.77;9.85;;;20.90;99.90;;;;;;5253806;28;20029;-77
2023/10/14 08:16:16;;;;;;;10.27;9.60;;;20.90;99.90;;;;;;5252651;28;20487;-77
2023/10/14 08:18:48;;;;;;;9.23;8.60;;;20.90;99.90;;;;;;5243378;28;20040;-77
2023/10/14 08:21:19;;;;;;;7.78;7.00;;;21.10;99.90;;;;;;5256240;28;20035;-77
2023/10/14 08:23:50;;;;;;;8.05;6.53;;;21.00;99.90;;;;;;5248640;28;20384;-77
2023/10/14 08:26:20;;;;;;;7.10;6.50;;;20.90;99.90;;;;;;5255295;28;20348;-77
2023/10/14 08:28:59;;;;;;;6.55;6.03;;;20.90;99.90;;;;;;5227195;28;20060;-77
2023/10/14 08:31:33;;;;;;;9.20;8.40;;;21.30;99.90;;;;;;5244583;28;20028;-78
2023/10/14 08:34:07;;;;;;;7.13;6.63;;;21.20;99.90;;;;;;5243948;28;20090;-78
2023/10/14 08:36:42;;;;;;;7.13;6.47;;;21.80;99.90;;;;;;5244189;28;20391;-78
2023/10/14 08:39:14;;;;;;;8.27;7.47;;;21.90;99.90;;;;;;5244210;28;20041;-78
2023/10/14 08:41:48;;;;;;;10.10;8.00;;;22.00;99.90;;;;;;5244330;28;20017;-78
2023/10/14 08:44:25;;;;;;;8.55;7.75;;;22.30;99.90;;;;;;5243979;28;20029;-78
2023/10/14 08:46:57;;;;;;;7.28;6.78;;;22.60;99.90;;;;;;5242473;28;20021;-77
2023/10/14 08:49:29;;;;;;;9.05;8.38;;;22.90;99.90;;;;;;5251012;28;20020;-78
2023/10/14 08:52:09;;;;;;;9.68;7.05;;;22.60;99.90;;;;;;5251148;28;20056;-78
2023/10/14 08:54:42;;;;;;;8.25;7.38;;;22.30;99.90;;;;;;5251270;28;20060;-78
2023/10/14 08:57:13;;;;;;;9.07;8.48;;;22.20;99.90;;;;;;5250930;28;20074;-77
2023/10/14 08:59:44;;;;;;;9.80;8.50;;;22.20;99.90;;;;;;5250914;28;20032;-78
2023/10/14 09:02:15;;;;;;;9.30;8.57;;;22.10;99.90;;;;;;5251162;28;20467;-78
2023/10/14 09:04:46;;;;;;;8.73;8.13;;;22.00;99.90;;;;;;5250856;28;20044;-78
2023/10/14 09:07:22;;;;;;;9.43;8.32;;;22.00;99.90;;;;;;5250701;28;20028;-78
2023/10/14 09:09:53;;;;;;;9.45;8.63;;;21.80;99.90;;;;;;5250697;28;20082;-78
2023/10/14 09:12:24;;;;;;;8.82;8.05;;;21.90;99.90;;;;;;5250771;28;20031;-78
2023/10/14 09:14:54;;;;;;;8.98;8.07;;;22.50;99.90;;;;;;5250754;28;20115;-78
2023/10/14 09:17:28;;;;;;;11.82;7.45;;;22.80;99.90;;;;;;5250632;28;20036;-78
2023/10/14 09:19:58;;;;;;;7.22;6.63;;;22.50;99.90;;;;;;5250844;28;20025;-77
2023/10/14 09:22:33;;;;;;;6.38;5.88;;;22.50;99.90;;;;;;5238306;28;20533;-78
2023/10/14 09:25:06;;;;;;;15.38;7.78;;;23.00;99.90;;;;;;5229908;28;20025;-78
2023/10/14 09:27:37;;;;;;;9.00;6.95;;;23.40;99.90;;;;;;5229787;28;20035;-78
2023/10/14 09:30:10;;;;;;;6.38;4.57;;;23.50;99.90;;;;;;5229765;28;20033;-78
2023/10/14 09:32:41;;;;;;;11.15;8.18;;;23.20;99.90;;;;;;5229586;28;20507;-78
2023/10/14 09:35:12;;;;;;;48.03;10.95;;;23.60;99.90;;;;;;5228930;28;20053;-78
2023/10/14 09:37:43;;;;;;;17.35;13.82;;;23.30;99.90;;;;;;5229758;28;20040;-78
2023/10/14 09:40:14;;;;;;;13.13;9.77;;;23.10;99.90;;;;;;5229297;28;20028;-78
2023/10/14 09:42:45;;;;;;;7.65;6.72;;;23.50;99.90;;;;;;5229600;28;20025;-78
2023/10/14 09:45:19;;;;;;;12.70;11.35;;;23.80;99.90;;;;;;5229345;28;20084;-78
2023/10/14 09:47:52;;;;;;;8.63;7.88;;;23.60;99.90;;;;;;5229479;28;20035;-78
2023/10/14 09:50:23;;;;;;;10.48;8.95;;;23.50;99.90;;;;;;5229497;28;20056;-77
2023/10/14 09:52:57;;;;;;;8.65;6.60;;;23.50;99.90;;;;;;5229216;28;20033;-78
2023/10/14 09:55:28;;;;;;;11.13;6.57;;;23.30;99.90;;;;;;5229286;28;20083;-79
2023/10/14 09:58:00;;;;;;;18.40;14.27;;;23.10;99.90;;;;;;5226896;28;20018;-78
2023/10/14 10:00:33;;;;;;;13.60;11.52;;;23.60;99.90;;;;;;5229197;28;20028;-77
2023/10/14 10:03:06;;;;;;;7.80;7.05;;;24.10;99.90;;;;;;5228981;28;20025;-77
2023/10/14 10:05:50;;;;;;;11.98;10.48;;;24.10;99.90;;;;;;5227729;28;20517;-77
2023/10/14 10:08:31;;;;;;;12.98;7.28;;;23.90;99.90;;;;;;5228784;28;20021;-78
2023/10/14 10:11:03;;;;;;;28.00;25.10;;;23.40;99.90;;;;;;5228880;28;20033;-78
2023/10/14 10:13:35;;;;;;;13.40;12.10;;;24.20;99.90;;;;;;5228875;28;20029;-78
2023/10/14 10:16:07;;;;;;;20.60;16.15;;;24.00;99.90;;;;;;5228757;28;20025;-78
2023/10/14 10:18:58;;;;;;;40.35;25.17;;;23.80;99.90;;;;;;5228708;28;20032;-78
2023/10/14 10:21:30;;;;;;;16.05;10.80;;;23.50;99.90;;;;;;5227456;28;20112;-78
2023/10/14 10:24:09;;;;;;;18.15;12.75;;;23.80;99.90;;;;;;5228563;28;20041;-78
2023/10/14 10:27:08;;;;;;;23.48;5.78;;;24.40;99.90;;;;;;5228852;28;20096;-78
2023/10/14 10:29:57;;;;;;;13.95;9.60;;;24.50;99.90;;;;;;5228534;28;20040;-79
2023/10/14 10:32:34;;;;;;;10.88;9.00;;;24.60;99.90;;;;;;5228472;28;20025;-78
2023/10/14 10:35:05;;;;;;;16.77;9.40;;;23.80;99.90;;;;;;5226895;28;20111;-79
2023/10/14 10:37:47;;;;;;;7.00;5.80;;;24.30;99.90;;;;;;5228148;28;20021;-78
2023/10/14 10:40:22;;;;;;;5.88;4.60;;;24.40;99.90;;;;;;5227170;28;20484;-78
2023/10/14 10:43:11;;;;;;;6.47;4.90;;;24.10;99.90;;;;;;5228270;28;20422;-79
2023/10/14 10:45:46;;;;;;;5.97;4.43;;;24.70;99.90;;;;;;5228354;28;20159;-78
2023/10/14 10:48:17;;;;;;;4.63;4.22;;;24.70;99.90;;;;;;5227055;28;20525;-78
2023/10/14 10:50:51;;;;;;;6.57;4.38;;;24.10;99.90;;;;;;5228057;28;20099;-78
2023/10/14 10:53:23;;;;;;;7.20;4.72;;;24.60;99.90;;;;;;5228200;28;20025;-78
2023/10/14 10:55:55;;;;;;;4.45;3.60;;;24.40;99.90;;;;;;5228251;28;20025;-78
2023/10/14 10:58:26;;;;;;;5.55;3.78;;;24.20;99.90;;;;;;5228082;28;20032;-78
2023/10/14 11:00:58;;;;;;;4.72;3.63;;;23.90;99.90;;;;;;5228152;28;20057;-78
2023/10/14 11:03:29;;;;;;;6.95;4.35;;;23.90;99.90;;;;;;5228082;28;20040;-78
2023/10/14 11:06:00;;;;;;;20.95;5.03;;;24.10;99.90;;;;;;5228059;28;20029;-78
2023/10/14 11:08:31;;;;;;;5.10;4.25;;;24.60;99.90;;;;;;5227658;28;20017;-78
2023/10/14 11:11:02;;;;;;;8.55;3.92;;;24.80;99.90;;;;;;5227872;28;20071;-78
2023/10/14 11:13:36;;;;;;;7.38;4.18;;;24.40;99.90;;;;;;5226666;28;20357;-78
2023/10/14 11:16:14;;;;;;;5.65;4.70;;;24.50;99.90;;;;;;5226591;28;20422;-78
2023/10/14 11:18:47;;;;;;;5.57;4.80;;;24.40;99.90;;;;;;5227823;28;20028;-78
2023/10/14 11:21:18;;;;;;;11.10;4.88;;;24.60;99.90;;;;;;5227674;28;20028;-78
2023/10/14 11:23:52;;;;;;;5.75;4.45;;;24.60;99.90;;;;;;5227618;28;20364;-78
2023/10/14 11:26:23;;;;;;;4.88;4.38;;;24.90;99.90;;;;;;5237949;28;20451;-78
2023/10/14 11:28:54;;;;;;;5.43;4.57;;;25.00;99.90;;;;;;5247771;28;20107;-78
2023/10/14 11:31:25;;;;;;;4.70;4.40;;;24.80;99.90;;;;;;5248153;28;20099;-78
2023/10/14 11:34:01;;;;;;;5.07;4.40;;;24.60;99.90;;;;;;5247701;28;20052;-78
2023/10/14 11:36:31;;;;;;;5.20;4.75;;;24.60;99.90;;;;;;5234047;28;20021;-78
2023/10/14 11:39:14;;;;;;;20.80;6.65;;;24.80;99.90;;;;;;5226428;28;20087;-78
2023/10/14 11:41:45;;;;;;;66.95;14.55;;;24.60;99.90;;;;;;5227873;28;20486;-77
2023/10/14 11:44:17;;;;;;;19.10;8.27;;;25.00;99.90;;;;;;5227652;28;20423;-76
2023/10/14 11:46:50;;;;;;;7.97;7.22;;;25.20;99.90;;;;;;5227747;28;20435;-78
2023/10/14 11:49:23;;;;;;;7.88;7.28;;;25.30;99.90;;;;;;5227484;28;20037;-77
2023/10/14 11:51:54;;;;;;;8.73;8.02;;;25.20;99.90;;;;;;5227538;28;20031;-78
2023/10/14 11:54:25;;;;;;;8.48;7.78;;;24.40;99.90;;;;;;5227771;28;20108;-77
2023/10/14 11:56:56;;;;;;;9.27;8.55;;;24.60;99.90;;;;;;5227505;28;20033;-77
2023/10/14 11:59:27;;;;;;;9.02;8.43;;;24.80;99.90;;;;;;5226347;28;20464;-77
2023/10/14 12:01:58;;;;;;;7.28;6.68;;;25.00;99.90;;;;;;5227609;28;20071;-77
2023/10/14 12:04:29;;;;;;;6.57;6.07;;;25.00;99.90;;;;;;5227160;28;20076;-77
2023/10/14 12:07:04;;;;;;;7.47;6.97;;;24.90;99.90;;;;;;5227562;28;20746;-78
2023/10/14 12:09:35;;;;;;;8.35;7.63;;;25.20;99.90;;;;;;5225925;28;20060;-77
2023/10/14 12:12:05;;;;;;;7.50;6.72;;;25.00;99.90;;;;;;5227357;28;20214;-77
2023/10/14 12:14:37;;;;;;;8.20;7.13;;;25.00;99.90;;;;;;5227181;28;20031;-77
2023/10/14 12:17:08;;;;;;;5.72;5.22;;;25.10;99.90;;;;;;5234538;28;20480;-78
2023/10/14 12:19:40;;;;;;;5.82;5.28;;;25.30;99.90;;;;;;5235128;28;20074;-78
2023/10/14 12:22:11;;;;;;;6.35;4.97;;;25.10;99.90;;;;;;5230006;28;20032;-76
2023/10/14 12:24:42;;;;;;;5.57;4.75;;;24.70;99.90;;;;;;5229828;28;20037;-77
2023/10/14 12:27:15;;;;;;;5.20;4.78;;;24.70;99.90;;;;;;5229399;28;20053;-77
2023/10/14 12:29:48;;;;;;;6.28;4.47;;;24.40;99.90;;;;;;5229409;28;20868;-76
2023/10/14 12:32:19;;;;;;;4.72;4.32;;;24.60;99.90;;;;;;5230973;28;20024;-76
2023/10/14 12:34:50;;;;;;;7.57;5.25;;;24.60;99.90;;;;;;5230729;28;20447;-76
2023/10/14 12:37:24;;;;;;;5.03;4.53;;;24.70;99.90;;;;;;5230804;28;20100;-77
2023/10/14 14:46:12;;;;;;;9.88;6.07;;;22.40;99.90;;;;;;5213787;28;20038;-79
2023/10/14 14:48:44;;;;;;;6.75;5.90;;;22.30;99.90;;;;;;5207116;28;20039;-79
2023/10/14 14:51:15;;;;;;;6.95;6.25;;;21.90;99.90;;;;;;5221468;28;20033;-78
2023/10/14 14:53:46;;;;;;;7.57;6.85;;;21.70;99.90;;;;;;5206852;28;20029;-80
2023/10/14 14:56:17;;;;;;;7.95;7.28;;;21.60;99.90;;;;;;5206979;28;20037;-80
2023/10/14 14:58:48;;;;;;;8.52;7.60;;;21.80;99.90;;;;;;5206753;28;20025;-77
2023/10/14 15:01:23;;;;;;;7.45;6.65;;;21.50;99.90;;;;;;5205291;28;20033;-79
2023/10/14 15:03:54;;;;;;;9.32;6.32;;;21.40;99.90;;;;;;5206432;28;20037;-77
2023/10/14 15:06:25;;;;;;;9.23;5.95;;;21.30;99.90;;;;;;5225068;28;20036;-75
2023/10/14 15:08:57;;;;;;;14.15;7.72;;;21.30;99.90;;;;;;5226076;28;20021;-76
2023/10/14 15:11:29;;;;;;;7.70;5.85;;;21.40;99.90;;;;;;5226055;28;20033;-75
2023/10/14 15:14:02;;;;;;;10.75;6.07;;;21.30;99.90;;;;;;5237695;28;20039;-76
2023/10/14 15:16:36;;;;;;;9.38;5.25;;;21.10;99.90;;;;;;5246083;28;20036;-75
2023/10/14 15:19:07;;;;;;;7.78;5.63;;;21.00;99.90;;;;;;5246081;28;20024;-76
2023/10/14 15:21:38;;;;;;;9.27;6.72;;;20.70;99.90;;;;;;5238137;28;20021;-77
2023/10/14 15:24:09;;;;;;;10.40;6.30;;;20.50;99.90;;;;;;5245592;28;20086;-75
2023/10/14 15:26:41;;;;;;;6.95;5.85;;;20.30;99.90;;;;;;5246240;28;20410;-77
2023/10/14 15:29:12;;;;;;;9.68;6.15;;;20.30;99.90;;;;;;5246670;28;20025;-76
2023/10/14 15:31:43;;;;;;;7.30;6.20;;;20.50;99.90;;;;;;5246577;28;20044;-78
2023/10/14 15:34:14;;;;;;;9.40;5.82;;;20.30;99.90;;;;;;5246484;28;20447;-78
2023/10/14 15:36:45;;;;;;;10.13;9.07;;;20.30;99.90;;;;;;5246699;28;20364;-78
2023/10/14 15:39:28;;;;;;;9.85;5.70;;;20.40;99.90;;;;;;5246727;28;20017;-78
2023/10/14 15:42:00;;;;;;;9.52;8.32;;;20.10;99.90;;;;;;5226383;28;20025;-79
2023/10/14 15:44:31;;;;;;;13.02;9.32;;;20.00;99.90;;;;;;5663548;23;20087;-78
2023/10/14 15:47:04;;;;;;;14.25;12.73;;;19.80;99.90;;;;;;5226819;28;20793;-76
2023/10/14 15:49:38;;;;;;;8.70;6.50;;;19.70;99.90;;;;;;5206053;28;20029;-76
2023/10/14 15:52:09;;;;;;;8.27;7.13;;;19.80;99.90;;;;;;5224971;28;20074;-77
2023/10/14 15:54:43;;;;;;;11.48;8.57;;;19.70;99.90;;;;;;5225917;28;20047;-76
2023/10/14 15:57:14;;;;;;;13.38;11.23;;;19.40;99.90;;;;;;5230196;28;20021;-76
2023/10/14 15:59:45;;;;;;;11.57;9.50;;;19.30;99.90;;;;;;5223623;28;20033;-80
2023/10/14 16:02:20;;;;;;;10.70;9.65;;;19.50;99.90;;;;;;5186415;28;20392;-78
2023/10/14 16:04:52;;;;;;;8.65;7.85;;;19.30;99.90;;;;;;5216501;28;20393;-78
2023/10/14 16:07:23;;;;;;;12.70;9.38;;;19.30;99.90;;;;;;5220910;28;20820;-76
2023/10/14 16:09:53;;;;;;;12.23;9.25;;;19.00;99.90;;;;;;5225235;28;20063;-78
2023/10/14 16:12:24;;;;;;;9.07;8.18;;;18.90;99.90;;;;;;5228588;28;20426;-77
2023/10/14 16:14:55;;;;;;;11.13;6.70;;;18.90;99.90;;;;;;5228716;28;20025;-78
2023/10/14 16:17:26;;;;;;;10.20;7.50;;;18.90;99.90;;;;;;5229474;28;20340;-78
2023/10/14 16:19:56;;;;;;;9.82;7.82;;;19.00;99.90;;;;;;5208848;28;20783;-79
2023/10/14 16:22:28;;;;;;;14.25;7.50;;;19.10;99.90;;;;;;5204712;28;20022;-80
2023/10/14 16:25:02;;;;;;;8.57;7.60;;;18.80;99.90;;;;;;5183177;28;20485;-77
2023/10/14 16:27:36;;;;;;;10.77;7.15;;;18.80;99.90;;;;;;5195322;28;20057;-77
2023/10/14 16:30:17;;;;;;;11.50;7.40;;;18.80;99.90;;;;;;5190968;28;20021;-75
2023/10/14 16:32:52;;;;;;;8.13;6.90;;;18.50;99.90;;;;;;5227803;28;20029;-76
2023/10/14 16:35:30;;;;;;;9.70;7.00;;;18.30;99.90;;;;;;5225076;28;20028;-77
2023/10/14 16:38:06;;;;;;;11.38;6.45;;;18.30;99.90;;;;;;5216820;28;20022;-77
2023/10/14 16:40:38;;;;;;;12.23;6.60;;;18.30;99.90;;;;;;5217746;28;20018;-78
2023/10/14 16:43:10;;;;;;;11.15;6.57;;;18.30;99.90;;;;;;5216197;28;20100;-77
2023/10/14 16:45:44;;;;;;;8.65;6.38;;;18.10;99.90;;;;;;5213578;28;20708;-78
2023/10/14 16:48:15;;;;;;;9.27;6.13;;;18.00;99.90;;;;;;5216411;28;20112;-76
2023/10/14 16:50:46;;;;;;;13.30;7.30;;;18.00;99.90;;;;;;5219050;28;20104;-76
2023/10/14 16:53:17;;;;;;;15.45;5.80;;;18.00;99.90;;;;;;5221880;28;20416;-76
2023/10/14 16:55:48;;;;;;;11.20;6.03;;;17.90;99.90;;;;;;5221987;28;20025;-77
2023/10/14 16:58:19;;;;;;;10.10;5.82;;;17.80;99.90;;;;;;5215924;28;20506;-77
2023/10/14 17:00:55;;;;;;;13.30;6.97;;;17.90;99.90;;;;;;5218000;28;20017;-76
2023/10/14 17:03:26;;;;;;;12.68;6.75;;;17.80;99.90;;;;;;5216773;28;20029;-76
2023/10/14 17:06:00;;;;;;;9.35;7.18;;;17.60;99.90;;;;;;5216786;28;20545;-75
2023/10/14 17:08:31;;;;;;;10.98;7.30;;;17.80;99.90;;;;;;5211627;28;20547;-75
2023/10/14 17:11:06;;;;;;;8.60;7.60;;;17.70;99.90;;;;;;5214477;28;20025;-75
2023/10/14 17:13:40;;;;;;;10.23;8.50;;;17.70;99.90;;;;;;5219422;28;20033;-78
2023/10/14 17:16:16;;;;;;;9.52;6.60;;;17.60;99.90;;;;;;5209064;28;20100;-75
2023/10/14 17:18:47;;;;;;;8.43;7.13;;;17.50;99.90;;;;;;5196155;28;20026;-74
2023/10/14 17:21:18;;;;;;;10.23;8.40;;;17.30;99.90;;;;;;5207406;28;20028;-75
2023/10/14 17:23:49;;;;;;;9.98;9.07;;;17.10;99.90;;;;;;5207350;28;20499;-74
2023/10/14 17:26:20;;;;;;;12.75;10.35;;;17.00;99.90;;;;;;5206713;28;20029;-77
2023/10/14 17:28:51;;;;;;;11.52;10.50;;;17.10;99.90;;;;;;5195994;28;20493;-74
2023/10/14 17:31:22;;;;;;;12.00;10.10;;;17.20;99.90;;;;;;5195190;28;20041;-76
2023/10/14 17:33:53;;;;;;;10.68;9.68;;;17.20;99.90;;;;;;5194641;28;20033;-76
2023/10/14 17:36:25;;;;;;;9.52;8.73;;;17.10;99.90;;;;;;5195491;28;20018;-78
2023/10/14 17:38:56;;;;;;;10.43;9.48;;;17.10;99.90;;;;;;5193410;28;20084;-75
2023/10/14 17:41:27;;;;;;;9.05;8.25;;;17.20;99.90;;;;;;5197157;28;20030;-76
2023/10/14 17:43:58;;;;;;;10.55;9.65;;;16.80;99.90;;;;;;5196594;28;20469;-77
2023/10/14 17:46:34;;;;;;;9.95;9.05;;;16.80;99.90;;;;;;5196120;28;20442;-74
2023/10/14 17:49:05;;;;;;;10.63;9.75;;;16.80;99.90;;;;;;5204557;28;20103;-75
2023/10/14 17:51:36;;;;;;;9.70;8.88;;;16.90;99.90;;;;;;5191539;28;20083;-77
2023/10/14 17:54:07;;;;;;;9.20;8.45;;;16.70;99.90;;;;;;5206131;28;20025;-76
2023/10/14 17:56:38;;;;;;;9.00;8.13;;;16.80;99.90;;;;;;5206433;28;20488;-75
2023/10/14 17:59:09;;;;;;;9.60;7.97;;;16.90;99.90;;;;;;5205365;28;20368;-75
2023/10/14 18:01:39;;;;;;;30.40;19.52;;;16.90;99.90;;;;;;5203950;28;20027;-75
2023/10/14 18:04:10;;;;;;;15.57;12.38;;;16.70;99.90;;;;;;5192919;28;20036;-75
2023/10/14 18:06:41;;;;;;;11.85;10.75;;;16.70;99.90;;;;;;5192354;28;20025;-76
2023/10/14 18:09:15;;;;;;;14.70;12.85;;;16.30;99.90;;;;;;5198882;28;20366;-75
2023/10/14 18:11:50;;;;;;;18.20;15.38;;;16.50;99.90;;;;;;5204560;28;20026;-74
2023/10/14 18:14:20;;;;;;;12.85;11.75;;;16.10;99.90;;;;;;5196609;28;20038;-76
2023/10/14 18:16:52;;;;;;;13.25;12.13;;;16.10;99.90;;;;;;5219992;28;20033;-77
2023/10/14 18:19:24;;;;;;;13.32;12.20;;;16.30;99.90;;;;;;5226139;28;20036;-77
2023/10/14 18:21:56;;;;;;;14.48;12.57;;;16.20;99.90;;;;;;5226990;28;20021;-80
2023/10/14 18:24:27;;;;;;;19.02;16.33;;;16.20;99.90;;;;;;5214455;28;20045;-76
2023/10/14 18:27:00;;;;;;;14.50;12.95;;;16.40;99.90;;;;;;5202410;28;20029;-75
2023/10/14 18:29:32;;;;;;;26.20;21.30;;;16.20;99.90;;;;;;5217251;28;20028;-75
2023/10/14 18:32:03;;;;;;;15.20;13.68;;;16.30;99.90;;;;;;5213353;28;20668;-74
2023/10/14 18:34:33;;;;;;;13.48;12.18;;;16.10;99.90;;;;;;5217164;28;20029;-78
2023/10/14 18:37:04;;;;;;;41.55;26.25;;;16.10;99.90;;;;;;5215661;28;20028;-77
2023/10/14 18:39:35;;;;;;;22.85;18.05;;;16.20;99.90;;;;;;5214239;28;20353;-75
2023/10/14 18:42:08;;;;;;;20.35;16.58;;;16.00;99.90;;;;;;5211268;28;20071;-76
2023/10/14 18:44:38;;;;;;;38.83;27.17;;;16.00;99.90;;;;;;5188545;28;20550;-78
2023/10/14 18:47:15;;;;;;;14.60;13.20;;;16.00;99.90;;;;;;5200233;28;20029;-77
2023/10/14 18:49:45;;;;;;;13.35;12.00;;;15.90;99.90;;;;;;5192604;28;20060;-77
2023/10/14 18:52:16;;;;;;;27.63;14.77;;;16.10;99.90;;;;;;5200688;28;20049;-76
2023/10/14 18:54:48;;;;;;;27.65;20.88;;;16.00;99.90;;;;;;5205543;28;20033;-77
2023/10/14 18:57:20;;;;;;;21.98;18.52;;;16.00;99.90;;;;;;5205723;28;20033;-76
2023/10/14 18:59:51;;;;;;;11.70;10.48;;;15.90;99.90;;;;;;5205477;28;20085;-76
2023/10/14 19:02:23;;;;;;;13.15;9.98;;;15.70;99.90;;;;;;5205429;28;20100;-76
2023/10/14 19:04:55;;;;;;;15.48;11.00;;;15.80;99.90;;;;;;5205293;28;20392;-77
2023/10/14 19:07:26;;;;;;;8.48;7.70;;;16.00;99.90;;;;;;5205434;28;20033;-76
2023/10/14 19:09:56;;;;;;;13.25;11.23;;;16.10;99.90;;;;;;5205569;28;20103;-77
2023/10/14 19:12:27;;;;;;;13.80;11.57;;;15.90;99.90;;;;;;5205400;28;20168;-77
2023/10/14 19:33:41;;;;;;;10.63;9.10;;;15.40;99.90;;;;;;3776173;26;20092;-74
2023/10/14 19:36:12;;;;;;;9.40;7.85;;;15.50;99.90;;;;;;5213174;28;20064;-77
2023/10/14 19:38:43;;;;;;;10.90;8.77;;;15.50;99.90;;;;;;5222652;28;20180;-81
2023/10/14 19:41:14;;;;;;;10.98;9.25;;;15.30;99.90;;;;;;5225683;28;20573;-74
2023/10/14 19:43:44;;;;;;;10.35;8.77;;;15.30;99.90;;;;;;5221210;28;20429;-76
2023/10/14 19:46:16;;;;;;;21.75;7.78;;;15.30;99.90;;;;;;5220982;28;20479;-76
2023/10/14 19:48:48;;;;;;;7.55;6.85;;;15.30;99.90;;;;;;5218571;28;20022;-77
2023/10/14 19:51:19;;;;;;;8.73;7.78;;;15.30;99.90;;;;;;5213929;28;20020;-75
2023/10/14 19:53:51;;;;;;;8.00;7.00;;;15.30;99.90;;;;;;5194523;28;20041;-78
2023/10/14 19:56:23;;;;;;;8.60;7.80;;;15.50;99.90;;;;;;5218014;28;20032;-82
2023/10/14 19:58:54;;;;;;;12.02;10.07;;;15.20;99.90;;;;;;5212534;28;20025;-80
2023/10/14 20:01:25;;;;;;;10.10;9.10;;;15.40;99.90;;;;;;5210524;28;20033;-78
2023/10/14 20:03:56;;;;;;;13.57;10.75;;;15.30;99.90;;;;;;5193828;28;20119;-79
2023/10/14 20:06:27;;;;;;;12.88;10.15;;;15.20;99.90;;;;;;5192824;28;20432;-78
2023/10/14 20:08:58;;;;;;;9.93;8.73;;;15.10;99.90;;;;;;5193477;28;20083;-79
2023/10/14 20:11:37;;;;;;;9.57;7.65;;;15.10;99.90;;;;;;5192967;28;20018;-74
2023/10/14 20:14:11;;;;;;;8.70;6.53;;;15.20;99.90;;;;;;5198966;28;20033;-74
2023/10/14 20:16:47;;;;;;;8.90;7.95;;;15.10;99.90;;;;;;5204571;28;20469;-74
2023/10/14 20:19:19;;;;;;;9.80;8.80;;;15.00;99.90;;;;;;5204857;28;20388;-74
2023/10/14 20:21:54;;;;;;;8.98;8.05;;;14.90;99.90;;;;;;5204437;28;20039;-74
2023/10/14 20:24:30;;;;;;;7.72;6.85;;;15.20;99.90;;;;;;5204454;28;20041;-74
2023/10/14 20:27:02;;;;;;;6.97;6.28;;;15.10;99.90;;;;;;5204338;28;20032;-74
2023/10/14 20:29:37;;;;;;;7.60;6.93;;;14.80;99.90;;;;;;5204368;28;20030;-74
2023/10/14 20:32:13;;;;;;;24.02;6.85;;;15.10;99.90;;;;;;5204288;28;20025;-74
2023/10/14 20:34:53;;;;;;;6.93;6.22;;;14.80;99.90;;;;;;5222101;28;20390;-74
2023/10/14 20:37:26;;;;;;;9.80;8.90;;;14.90;99.90;;;;;;5225141;28;20037;-75
2023/10/14 20:40:05;;;;;;;8.32;7.72;;;14.70;99.90;;;;;;5224959;28;20349;-74
2023/10/14 20:42:42;;;;;;;9.18;8.30;;;14.90;99.90;;;;;;5227775;28;20021;-75
2023/10/14 20:45:14;;;;;;;14.27;10.43;;;14.80;99.90;;;;;;5228021;28;20033;-74
2023/10/14 20:47:57;;;;;;;8.93;7.70;;;14.60;99.90;;;;;;5228729;28;20487;-74
2023/10/14 20:50:30;;;;;;;10.40;9.50;;;14.80;99.90;;;;;;5228563;28;20056;-75
2023/10/14 20:53:03;;;;;;;10.85;9.05;;;14.70;99.90;;;;;;5228529;28;20025;-80
2023/10/14 20:55:34;;;;;;;8.32;7.68;;;14.70;99.90;;;;;;5228717;28;20112;-77
2023/10/14 20:58:06;;;;;;;8.48;7.68;;;14.70;99.90;;;;;;5228791;28;20420;-75
2023/10/14 21:00:39;;;;;;;8.48;7.78;;;14.60;99.90;;;;;;5228620;28;20063;-79
2023/10/14 21:03:21;;;;;;;9.15;8.45;;;14.50;99.90;;;;;;5228432;28;20025;-74
2023/10/14 21:05:55;;;;;;;8.45;7.85;;;14.30;99.90;;;;;;5226837;28;20123;-76
2023/10/14 21:08:27;;;;;;;8.88;8.18;;;14.60;99.90;;;;;;5228007;28;20031;-76
2023/10/14 21:10:57;;;;;;;10.02;9.13;;;14.50;99.90;;;;;;5228443;28;20033;-79
2023/10/14 21:13:28;;;;;;;10.00;9.20;;;14.40;99.90;;;;;;5228160;28;20434;-79
2023/10/14 21:16:01;;;;;;;10.07;9.38;;;14.50;99.90;;;;;;5228108;28;20376;-74
2023/10/14 21:18:32;;;;;;;10.57;9.70;;;14.30;99.90;;;;;;5228051;28;20028;-73
2023/10/14 21:21:23;;;;;;;9.05;8.35;;;14.20;99.90;;;;;;5227579;28;20048;-77
2023/10/14 21:23:54;;;;;;;11.00;10.20;;;14.20;99.90;;;;;;5222550;28;20029;-74
2023/10/14 21:26:25;;;;;;;12.50;11.30;;;14.10;99.90;;;;;;5223802;28;20013;-74
2023/10/14 21:28:56;;;;;;;12.88;11.73;;;14.00;99.90;;;;;;5227355;28;20356;-82
2023/10/14 21:31:28;;;;;;;12.27;11.15;;;14.00;99.90;;;;;;5226989;28;20052;-83
2023/10/14 21:33:59;;;;;;;12.90;11.32;;;14.20;99.90;;;;;;5208587;28;20467;-81
2023/10/14 21:36:31;;;;;;;12.55;11.60;;;14.30;99.90;;;;;;5225136;28;20021;-80
2023/10/14 21:39:06;;;;;;;11.93;10.68;;;14.10;99.90;;;;;;5227023;28;20025;-75
2023/10/14 21:41:39;;;;;;;12.13;11.05;;;14.10;99.90;;;;;;5225633;28;20404;-83
2023/10/14 21:44:11;;;;;;;13.82;12.68;;;14.00;99.90;;;;;;5225377;28;20033;-82
2023/10/14 21:46:42;;;;;;;14.85;13.38;;;14.20;99.90;;;;;;5225721;28;20561;-83
2023/10/14 21:49:13;;;;;;;14.32;12.95;;;14.30;99.90;;;;;;5225690;28;20029;-80
2023/10/14 21:51:44;;;;;;;15.30;13.98;;;13.90;99.90;;;;;;5222985;28;20035;-78
2023/10/14 21:54:14;;;;;;;13.95;12.52;;;13.90;99.90;;;;;;5225170;28;20051;-77
2023/10/14 21:56:45;;;;;;;13.88;12.65;;;14.00;99.90;;;;;;5226550;28;20017;-75
2023/10/14 21:59:16;;;;;;;14.23;13.02;;;14.00;99.90;;;;;;5227118;28;20068;-80
2023/10/14 22:01:47;;;;;;;14.35;13.05;;;13.80;99.90;;;;;;5226694;28;20041;-76
2023/10/14 22:04:18;;;;;;;15.27;13.65;;;14.00;99.90;;;;;;5225166;28;20070;-74
2023/10/14 22:06:49;;;;;;;13.32;12.32;;;13.80;99.90;;;;;;5225007;28;20052;-81
2023/10/14 22:09:21;;;;;;;13.65;12.65;;;13.80;99.90;;;;;;5226614;28;20032;-74
2023/10/14 22:11:52;;;;;;;12.13;11.02;;;13.70;99.90;;;;;;5226775;28;20025;-76
2023/10/14 22:14:25;;;;;;;14.13;12.93;;;13.70;99.90;;;;;;5224124;28;20033;-78
2023/10/14 22:16:57;;;;;;;17.80;16.42;;;13.70;99.90;;;;;;5226206;28;20032;-77
2023/10/14 22:19:28;;;;;;;15.85;14.65;;;13.50;99.90;;;;;;5226602;28;20016;-73
2023/10/14 22:22:01;;;;;;;16.58;15.05;;;13.60;99.90;;;;;;5216743;28;20021;-74
2023/10/14 22:24:32;;;;;;;20.80;18.70;;;13.60;99.90;;;;;;5226560;28;20029;-73
2023/10/14 22:27:04;;;;;;;18.08;16.50;;;13.60;99.90;;;;;;5226650;28;20365;-81
2023/10/14 22:29:35;;;;;;;17.92;16.38;;;13.30;99.90;;;;;;5226322;28;20353;-77
2023/10/14 22:32:08;;;;;;;18.70;16.95;;;13.40;99.90;;;;;;5223916;28;20079;-77
2023/10/14 22:34:39;;;;;;;17.52;15.75;;;13.50;99.90;;;;;;5224064;28;20064;-83
2023/10/14 22:37:11;;;;;;;14.90;13.57;;;13.50;99.90;;;;;;5222347;28;20523;-73
2023/10/14 22:39:41;;;;;;;18.48;16.88;;;13.40;99.90;;;;;;5224719;28;20099;-74
2023/10/14 22:42:12;;;;;;;16.92;15.45;;;13.40;99.90;;;;;;5225089;28;20035;-74
2023/10/14 22:44:45;;;;;;;15.13;13.85;;;13.60;99.90;;;;;;5225202;28;20488;-78
2023/10/14 22:47:15;;;;;;;16.85;15.52;;;13.50;99.90;;;;;;5225235;28;20056;-73
2023/10/14 22:49:46;;;;;;;16.00;14.60;;;13.40;99.90;;;;;;5225281;28;20025;-74
2023/10/14 22:52:17;;;;;;;18.90;17.20;;;13.40;99.90;;;;;;5226099;28;20056;-79
2023/10/14 22:54:48;;;;;;;20.08;18.27;;;13.10;99.90;;;;;;5226258;28;20372;-75
2023/10/14 22:57:19;;;;;;;17.85;16.25;;;13.40;99.90;;;;;;5226185;28;20457;-73
2023/10/14 22:59:50;;;;;;;18.77;17.05;;;13.30;99.90;;;;;;5226149;28;20032;-76
2023/10/14 23:02:22;;;;;;;18.85;17.13;;;13.40;99.90;;;;;;5226025;28;20041;-73
2023/10/14 23:04:53;;;;;;;18.38;16.77;;;13.50;99.90;;;;;;5225617;28;20044;-73